Kezdőlap
METAR-TAF:

METAR-TAF

Repülőterek :

Tucson, Arizona, Amerikai Egyesült Államok

földrajzi szélesség: 32-24-34N, földrajzi hosszúság: 111-13-06W, magasság: 619 m

Jelenlegi meteorológiai megfigyelések

A jelentés 30 perccel ezelõtt készült, 06:35 UTC
Déli szél 9 kt
Hőmérséklet 21°C
Páratartalom 21%
Légköri nyomás 1013 hPa
Látótávolság: 16.1 km

METAR: KAVQ 250635Z AUTO 17009KT 10SM 21/M02 A2991 RMK AO2 T02101024

Idő: 00:05 (07:05 UTC)


TAF: hiányzik

Meteorológiai megfigyelések és előrejelzések több, mint 4000 repülőtéren (METAR és TAF jelentéseket).

A térképen piros és sárga pontok jelzik az elérhető meteorológiai állomásokat.

Mozgassa az egeret a pont fölött, hogy megjelenjen az állomás neve.

Azután kattintson az időjárási megfigyelések és előrejelzések megtekintéséhez.

A térkép megváltoztatása: kattintson a fekete keresztel jelölt zöld gombra ráközelítéshez, a vonallal jelölt zöld gombra távolításhoz, vagy a zöld nyilakra a szomszédos térképek eléréséhez.


METAR-TAF: